sensor_id;sensor_type;location;lat;lon;timestamp;pressure;altitude;pressure_sealevel;temperature;humidity
57859;BME280;49153;45.568;11.894;2022-12-18T00:01:28;102570.19;;;5.25;79.01
57859;BME280;49153;45.568;11.894;2022-12-18T00:03:55;102564.25;;;5.17;78.68
57859;BME280;49153;45.568;11.894;2022-12-18T00:06:22;102565.13;;;5.16;78.79
57859;BME280;49153;45.568;11.894;2022-12-18T00:08:48;102560.88;;;5.12;78.81
57859;BME280;49153;45.568;11.894;2022-12-18T00:11:16;102573.00;;;5.15;78.80
57859;BME280;49153;45.568;11.894;2022-12-18T00:13:42;102575.50;;;5.21;78.86
57859;BME280;49153;45.568;11.894;2022-12-18T00:16:16;102572.03;;;5.19;78.47
57859;BME280;49153;45.568;11.894;2022-12-18T00:18:45;102570.38;;;5.16;78.43
57859;BME280;49153;45.568;11.894;2022-12-18T00:21:12;102570.38;;;5.16;78.37
57859;BME280;49153;45.568;11.894;2022-12-18T00:23:39;102577.34;;;5.17;78.39
57859;BME280;49153;45.568;11.894;2022-12-18T00:26:07;102570.38;;;5.15;78.31
57859;BME280;49153;45.568;11.894;2022-12-18T00:28:34;102581.72;;;5.15;78.40
57859;BME280;49153;45.568;11.894;2022-12-18T00:31:05;102572.19;;;5.13;77.94
57859;BME280;49153;45.568;11.894;2022-12-18T00:33:31;102571.16;;;5.20;77.88
57859;BME280;49153;45.568;11.894;2022-12-18T00:36:01;102579.88;;;5.20;77.44
57859;BME280;49153;45.568;11.894;2022-12-18T00:38:27;102573.84;;;5.17;77.26
57859;BME280;49153;45.568;11.894;2022-12-18T00:40:52;102569.53;;;5.14;77.48
57859;BME280;49153;45.568;11.894;2022-12-18T00:43:17;102568.81;;;5.07;77.38
57859;BME280;49153;45.568;11.894;2022-12-18T00:45:43;102566.22;;;5.04;77.38
57859;BME280;49153;45.568;11.894;2022-12-18T00:48:08;102578.44;;;5.04;76.70
57859;BME280;49153;45.568;11.894;2022-12-18T00:50:34;102585.38;;;5.06;77.27
57859;BME280;49153;45.568;11.894;2022-12-18T00:52:59;102583.66;;;5.04;76.96
57859;BME280;49153;45.568;11.894;2022-12-18T00:55:24;102595.06;;;5.01;76.75
57859;BME280;49153;45.568;11.894;2022-12-18T00:57:51;102607.28;;;5.01;77.04
57859;BME280;49153;45.568;11.894;2022-12-18T01:00:17;102605.53;;;5.01;76.85
57859;BME280;49153;45.568;11.894;2022-12-18T01:02:43;102604.69;;;4.99;77.11
57859;BME280;49153;45.568;11.894;2022-12-18T01:05:10;102612.53;;;4.98;77.29
57859;BME280;49153;45.568;11.894;2022-12-18T01:07:36;102602.19;;;4.92;76.73
57859;BME280;49153;45.568;11.894;2022-12-18T01:10:03;102615.25;;;4.93;76.94
57859;BME280;49153;45.568;11.894;2022-12-18T01:12:29;102604.97;;;4.83;77.20
57859;BME280;49153;45.568;11.894;2022-12-18T01:14:54;102616.28;;;4.83;76.86
57859;BME280;49153;45.568;11.894;2022-12-18T01:17:20;102615.56;;;4.75;77.19
57859;BME280;49153;45.568;11.894;2022-12-18T01:19:45;102625.19;;;4.72;76.83
57859;BME280;49153;45.568;11.894;2022-12-18T01:22:11;102622.69;;;4.65;76.93
57859;BME280;49153;45.568;11.894;2022-12-18T01:24:36;102632.34;;;4.62;77.08
57859;BME280;49153;45.568;11.894;2022-12-18T01:27:02;102634.16;;;4.58;76.96
57859;BME280;49153;45.568;11.894;2022-12-18T01:29:27;102638.59;;;4.53;77.19
57859;BME280;49153;45.568;11.894;2022-12-18T01:31:55;102652.50;;;4.54;76.97
57859;BME280;49153;45.568;11.894;2022-12-18T01:34:21;102645.66;;;4.47;77.28
57859;BME280;49153;45.568;11.894;2022-12-18T01:36:46;102647.47;;;4.40;77.73
57859;BME280;49153;45.568;11.894;2022-12-18T01:39:13;102649.22;;;4.41;77.65
57859;BME280;49153;45.568;11.894;2022-12-18T01:41:39;102650.16;;;4.37;77.41
57859;BME280;49153;45.568;11.894;2022-12-18T01:49:55;102662.50;;;4.24;77.95
57859;BME280;49153;45.568;11.894;2022-12-18T01:52:21;102670.34;;;4.24;77.41
57859;BME280;49153;45.568;11.894;2022-12-18T01:54:50;102671.22;;;4.25;77.54
57859;BME280;49153;45.568;11.894;2022-12-18T01:57:16;102680.81;;;4.23;77.73
57859;BME280;49153;45.568;11.894;2022-12-18T01:59:42;102660.97;;;4.11;78.20
57859;BME280;49153;45.568;11.894;2022-12-18T02:02:10;102667.13;;;4.06;77.39
57859;BME280;49153;45.568;11.894;2022-12-18T02:04:37;102688.81;;;4.11;77.57
57859;BME280;49153;45.568;11.894;2022-12-18T02:09:46;102692.44;;;3.99;78.31
57859;BME280;49153;45.568;11.894;2022-12-18T02:12:31;102677.78;;;3.88;78.15
57859;BME280;49153;45.568;11.894;2022-12-18T02:15:06;102683.00;;;3.91;77.89
57859;BME280;49153;45.568;11.894;2022-12-18T02:17:40;102700.41;;;3.89;78.63
57859;BME280;49153;45.568;11.894;2022-12-18T02:20:21;102703.06;;;3.86;78.53
57859;BME280;49153;45.568;11.894;2022-12-18T02:28:00;102690.09;;;3.76;79.36
57859;BME280;49153;45.568;11.894;2022-12-18T02:30:29;102695.31;;;3.76;78.91
57859;BME280;49153;45.568;11.894;2022-12-18T02:32:57;102692.81;;;3.69;79.00
57859;BME280;49153;45.568;11.894;2022-12-18T02:35:26;102699.78;;;3.67;78.96
57859;BME280;49153;45.568;11.894;2022-12-18T02:37:53;102696.31;;;3.65;79.33
57859;BME280;49153;45.568;11.894;2022-12-18T02:40:20;102704.22;;;3.60;78.79
57859;BME280;49153;45.568;11.894;2022-12-18T02:42:46;102709.41;;;3.62;79.09
57859;BME280;49153;45.568;11.894;2022-12-18T02:45:12;102711.22;;;3.58;79.26
57859;BME280;49153;45.568;11.894;2022-12-18T02:47:40;102710.28;;;3.64;79.29
57859;BME280;49153;45.568;11.894;2022-12-18T02:52:47;102737.16;;;3.70;79.31
57859;BME280;49153;45.568;11.894;2022-12-18T02:58:51;102731.16;;;3.62;78.90
57859;BME280;49153;45.568;11.894;2022-12-18T03:03:59;102732.84;;;3.68;79.60
57859;BME280;49153;45.568;11.894;2022-12-18T03:06:32;102739.75;;;3.70;79.00
57859;BME280;49153;45.568;11.894;2022-12-18T03:09:07;102735.44;;;3.68;79.15
57859;BME280;49153;45.568;11.894;2022-12-18T03:11:37;102715.59;;;3.53;79.06
57859;BME280;49153;45.568;11.894;2022-12-18T03:14:24;102732.91;;;3.62;79.90
57859;BME280;49153;45.568;11.894;2022-12-18T03:16:53;102740.66;;;3.68;79.30
57859;BME280;49153;45.568;11.894;2022-12-18T03:19:22;102731.97;;;3.67;79.75
57859;BME280;49153;45.568;11.894;2022-12-18T03:21:51;102731.97;;;3.67;79.31
57859;BME280;49153;45.568;11.894;2022-12-18T03:24:19;102724.09;;;3.70;79.29
57859;BME280;49153;45.568;11.894;2022-12-18T03:26:47;102725.88;;;3.67;79.24
57859;BME280;49153;45.568;11.894;2022-12-18T03:29:18;102725.00;;;3.69;79.15
57859;BME280;49153;45.568;11.894;2022-12-18T03:31:51;102736.28;;;3.71;79.58
57859;BME280;49153;45.568;11.894;2022-12-18T03:34:29;102738.00;;;3.74;79.15
57859;BME280;49153;45.568;11.894;2022-12-18T03:36:55;102731.94;;;3.70;78.88
57859;BME280;49153;45.568;11.894;2022-12-18T03:39:21;102717.19;;;3.66;78.71
57859;BME280;49153;45.568;11.894;2022-12-18T03:55:42;102740.72;;;3.63;78.82
57859;BME280;49153;45.568;11.894;2022-12-18T03:58:09;102745.13;;;3.58;78.76
57859;BME280;49153;45.568;11.894;2022-12-18T04:00:38;102744.25;;;3.59;79.09
57859;BME280;49153;45.568;11.894;2022-12-18T04:03:05;102754.72;;;3.55;78.75
57859;BME280;49153;45.568;11.894;2022-12-18T04:05:33;102752.16;;;3.50;78.29
57859;BME280;49153;45.568;11.894;2022-12-18T04:08:00;102758.22;;;3.52;77.91
57859;BME280;49153;45.568;11.894;2022-12-18T04:10:26;102758.25;;;3.49;78.60
57859;BME280;49153;45.568;11.894;2022-12-18T04:12:55;102751.38;;;3.40;78.63
57859;BME280;49153;45.568;11.894;2022-12-18T04:15:21;102762.69;;;3.39;78.27
57859;BME280;49153;45.568;11.894;2022-12-18T04:17:48;102776.59;;;3.40;78.47
57859;BME280;49153;45.568;11.894;2022-12-18T04:20:14;102773.16;;;3.35;78.36
57859;BME280;49153;45.568;11.894;2022-12-18T04:22:39;102783.59;;;3.35;78.18
57859;BME280;49153;45.568;11.894;2022-12-18T04:25:05;102802.66;;;3.42;78.58
57859;BME280;49153;45.568;11.894;2022-12-18T04:27:30;102789.69;;;3.34;79.13
57859;BME280;49153;45.568;11.894;2022-12-18T04:29:56;102790.59;;;3.30;78.42
57859;BME280;49153;45.568;11.894;2022-12-18T04:32:21;102820.06;;;3.39;78.51
57859;BME280;49153;45.568;11.894;2022-12-18T04:34:47;102804.53;;;3.27;78.12
57859;BME280;49153;45.568;11.894;2022-12-18T04:37:12;102812.34;;;3.26;78.83
57859;BME280;49153;45.568;11.894;2022-12-18T04:39:37;102827.09;;;3.31;78.70
57859;BME280;49153;45.568;11.894;2022-12-18T04:42:03;102820.19;;;3.24;78.52
57859;BME280;49153;45.568;11.894;2022-12-18T04:44:28;102815.88;;;3.17;79.31
57859;BME280;49153;45.568;11.894;2022-12-18T04:46:54;102821.13;;;3.13;78.84
57859;BME280;49153;45.568;11.894;2022-12-18T04:49:19;102820.28;;;3.09;79.17
57859;BME280;49153;45.568;11.894;2022-12-18T04:51:44;102821.19;;;3.07;78.33
57859;BME280;49153;45.568;11.894;2022-12-18T04:54:10;102824.66;;;3.09;79.11
57859;BME280;49153;45.568;11.894;2022-12-18T04:56:35;102823.81;;;3.02;78.96
57859;BME280;49153;45.568;11.894;2022-12-18T04:59:01;102853.31;;;3.10;79.55
57859;BME280;49153;45.568;11.894;2022-12-18T05:01:26;102848.97;;;3.09;79.15
57859;BME280;49153;45.568;11.894;2022-12-18T05:03:51;102835.13;;;3.00;79.05
57859;BME280;49153;45.568;11.894;2022-12-18T05:06:17;102867.19;;;3.12;79.59
57859;BME280;49153;45.568;11.894;2022-12-18T05:08:43;102853.34;;;3.06;78.75
57859;BME280;49153;45.568;11.894;2022-12-18T05:11:11;102866.34;;;3.09;79.80
57859;BME280;49153;45.568;11.894;2022-12-18T05:13:37;102856.78;;;3.09;79.37
57859;BME280;49153;45.568;11.894;2022-12-18T05:16:04;102873.25;;;3.17;79.43
57859;BME280;49153;45.568;11.894;2022-12-18T05:18:29;102864.59;;;3.15;79.87
57859;BME280;49153;45.568;11.894;2022-12-18T05:20:56;102861.13;;;3.15;79.68
57859;BME280;49153;45.568;11.894;2022-12-18T05:23:23;102880.16;;;3.26;79.56
57859;BME280;49153;45.568;11.894;2022-12-18T05:25:57;102881.06;;;3.20;78.76
57859;BME280;49153;45.568;11.894;2022-12-18T05:28:24;102897.56;;;3.24;79.17
57859;BME280;49153;45.568;11.894;2022-12-18T05:30:52;102896.72;;;3.22;79.41
57859;BME280;49153;45.568;11.894;2022-12-18T05:33:23;102896.72;;;3.22;79.62
57859;BME280;49153;45.568;11.894;2022-12-18T05:35:53;102908.81;;;3.29;79.75
57859;BME280;49153;45.568;11.894;2022-12-18T05:38:20;102902.78;;;3.25;78.99
57859;BME280;49153;45.568;11.894;2022-12-18T05:40:47;102901.03;;;3.26;79.26
57859;BME280;49153;45.568;11.894;2022-12-18T05:43:13;102894.94;;;3.25;79.49
57859;BME280;49153;45.568;11.894;2022-12-18T05:45:39;102886.28;;;3.20;78.79
57859;BME280;49153;45.568;11.894;2022-12-18T05:48:05;102888.91;;;3.22;79.60
57859;BME280;49153;45.568;11.894;2022-12-18T05:50:30;102873.31;;;3.10;79.75
57859;BME280;49153;45.568;11.894;2022-12-18T05:52:58;102899.34;;;3.13;79.09
57859;BME280;49153;45.568;11.894;2022-12-18T05:55:23;102895.94;;;3.06;79.16
57859;BME280;49153;45.568;11.894;2022-12-18T05:57:49;102902.88;;;3.03;79.28
57859;BME280;49153;45.568;11.894;2022-12-18T06:00:15;102909.03;;;2.95;78.98
57859;BME280;49153;45.568;11.894;2022-12-18T06:02:40;102909.03;;;2.91;79.39
57859;BME280;49153;45.568;11.894;2022-12-18T06:05:06;102914.22;;;2.91;79.47
57859;BME280;49153;45.568;11.894;2022-12-18T06:07:32;102912.56;;;2.84;79.49
57859;BME280;49153;45.568;11.894;2022-12-18T06:09:57;102902.13;;;2.76;79.65
57859;BME280;49153;45.568;11.894;2022-12-18T06:12:22;102919.50;;;2.83;79.82
57859;BME280;49153;45.568;11.894;2022-12-18T06:14:48;102923.84;;;2.81;79.93
57859;BME280;49153;45.568;11.894;2022-12-18T06:17:13;102914.31;;;2.77;79.76
57859;BME280;49153;45.568;11.894;2022-12-18T06:19:38;102919.50;;;2.76;79.72
57859;BME280;49153;45.568;11.894;2022-12-18T06:22:04;102926.47;;;2.75;79.83
57859;BME280;49153;45.568;11.894;2022-12-18T06:24:30;102927.34;;;2.74;79.85
57859;BME280;49153;45.568;11.894;2022-12-18T06:26:55;102936.91;;;2.71;79.97
57859;BME280;49153;45.568;11.894;2022-12-18T06:29:20;102941.25;;;2.70;80.20
57859;BME280;49153;45.568;11.894;2022-12-18T06:31:46;102947.31;;;2.71;80.35
57859;BME280;49153;45.568;11.894;2022-12-18T06:34:11;102939.53;;;2.68;80.06
57859;BME280;49153;45.568;11.894;2022-12-18T06:36:37;102942.13;;;2.65;80.13
57859;BME280;49153;45.568;11.894;2022-12-18T06:39:02;102960.38;;;2.74;79.98
57859;BME280;49153;45.568;11.894;2022-12-18T06:41:28;102961.22;;;2.71;79.95
57859;BME280;49153;45.568;11.894;2022-12-18T06:44:03;102955.16;;;2.69;80.30
57859;BME280;49153;45.568;11.894;2022-12-18T06:46:29;102956.03;;;2.68;80.50
57859;BME280;49153;45.568;11.894;2022-12-18T06:48:54;102953.41;;;2.65;80.49
57859;BME280;49153;45.568;11.894;2022-12-18T06:51:21;102973.38;;;2.74;80.27
57859;BME280;49153;45.568;11.894;2022-12-18T06:53:53;102955.16;;;2.72;80.18
57859;BME280;49153;45.568;11.894;2022-12-18T06:56:22;102964.72;;;2.75;81.06
57859;BME280;49153;45.568;11.894;2022-12-18T06:58:48;102956.00;;;2.70;80.53
57859;BME280;49153;45.568;11.894;2022-12-18T07:01:16;102985.53;;;2.82;80.60
57859;BME280;49153;45.568;11.894;2022-12-18T07:03:45;102963.84;;;2.74;79.89
57859;BME280;49153;45.568;11.894;2022-12-18T07:06:18;102967.28;;;2.76;80.31
57859;BME280;49153;45.568;11.894;2022-12-18T07:08:45;102978.56;;;2.81;80.49
57859;BME280;49153;45.568;11.894;2022-12-18T07:11:11;102983.81;;;2.80;80.62
57859;BME280;49153;45.568;11.894;2022-12-18T07:13:37;102986.38;;;2.81;80.85
57859;BME280;49153;45.568;11.894;2022-12-18T07:16:25;102986.41;;;2.78;80.44
57859;BME280;49153;45.568;11.894;2022-12-18T07:18:50;102994.19;;;2.86;80.50
57859;BME280;49153;45.568;11.894;2022-12-18T07:21:18;102981.16;;;2.81;80.75
57859;BME280;49153;45.568;11.894;2022-12-18T07:23:44;102996.78;;;2.93;80.56
57859;BME280;49153;45.568;11.894;2022-12-18T07:26:14;102999.38;;;2.96;80.54
57859;BME280;49153;45.568;11.894;2022-12-18T07:28:40;102995.91;;;3.01;80.26
57859;BME280;49153;45.568;11.894;2022-12-18T07:31:08;102987.22;;;3.00;80.48
57859;BME280;49153;45.568;11.894;2022-12-18T07:33:34;103001.97;;;3.06;80.19
57859;BME280;49153;45.568;11.894;2022-12-18T07:36:04;103008.00;;;3.14;80.42
57859;BME280;49153;45.568;11.894;2022-12-18T07:38:31;103017.53;;;3.21;80.14
57859;BME280;49153;45.568;11.894;2022-12-18T07:41:04;103018.38;;;3.24;80.11
57859;BME280;49153;45.568;11.894;2022-12-18T07:43:30;103014.06;;;3.22;80.17
57859;BME280;49153;45.568;11.894;2022-12-18T07:45:56;103007.94;;;3.23;79.86
57859;BME280;49153;45.568;11.894;2022-12-18T07:48:21;102998.41;;;3.22;80.27
57859;BME280;49153;45.568;11.894;2022-12-18T07:50:47;103026.13;;;3.39;80.31
57859;BME280;49153;45.568;11.894;2022-12-18T07:53:13;103033.03;;;3.50;80.08
57859;BME280;49153;45.568;11.894;2022-12-18T07:55:40;103038.25;;;3.57;79.71
57859;BME280;49153;45.568;11.894;2022-12-18T07:58:06;103032.16;;;3.58;79.66
57859;BME280;49153;45.568;11.894;2022-12-18T08:00:32;103027.78;;;3.60;79.32
57859;BME280;49153;45.568;11.894;2022-12-18T08:02:58;103034.69;;;3.66;79.66
57859;BME280;49153;45.568;11.894;2022-12-18T08:05:24;103050.31;;;3.79;79.41
57859;BME280;49153;45.568;11.894;2022-12-18T08:07:49;103059.81;;;3.90;79.02
57859;BME280;49153;45.568;11.894;2022-12-18T08:10:15;103059.75;;;3.99;78.58
57859;BME280;49153;45.568;11.894;2022-12-18T08:12:40;103064.91;;;4.08;77.99
57859;BME280;49153;45.568;11.894;2022-12-18T08:15:06;103067.44;;;4.18;78.82
57859;BME280;49153;45.568;11.894;2022-12-18T08:17:32;103060.47;;;4.22;78.49
57859;BME280;49153;45.568;11.894;2022-12-18T08:19:57;103068.22;;;4.31;78.21
57859;BME280;49153;45.568;11.894;2022-12-18T08:22:23;103070.75;;;4.40;78.40
57859;BME280;49153;45.568;11.894;2022-12-18T08:24:48;103085.47;;;4.52;77.71
57859;BME280;49153;45.568;11.894;2022-12-18T08:27:14;103084.50;;;4.60;77.84
57859;BME280;49153;45.568;11.894;2022-12-18T08:29:39;103084.41;;;4.71;77.63
57859;BME280;49153;45.568;11.894;2022-12-18T08:32:04;103090.44;;;4.81;77.44
57859;BME280;49153;45.568;11.894;2022-12-18T08:34:30;103090.38;;;4.87;77.10
57859;BME280;49153;45.568;11.894;2022-12-18T08:36:55;103085.94;;;4.93;77.18
57859;BME280;49153;45.568;11.894;2022-12-18T08:39:21;103100.66;;;5.05;76.36
57859;BME280;49153;45.568;11.894;2022-12-18T08:41:46;103097.97;;;5.11;76.57
57859;BME280;49153;45.568;11.894;2022-12-18T08:44:32;103110.13;;;5.18;75.80
57859;BME280;49153;45.568;11.894;2022-12-18T08:47:04;103107.47;;;5.23;76.23
57859;BME280;49153;45.568;11.894;2022-12-18T08:49:30;103123.84;;;5.38;75.63
57859;BME280;49153;45.568;11.894;2022-12-18T08:51:56;103121.19;;;5.43;74.45
57859;BME280;49153;45.568;11.894;2022-12-18T08:54:24;103122.88;;;5.47;74.17
57859;BME280;49153;45.568;11.894;2022-12-18T08:56:50;103135.09;;;5.48;74.07
57859;BME280;49153;45.568;11.894;2022-12-18T08:59:17;103135.91;;;5.51;73.50
57859;BME280;49153;45.568;11.894;2022-12-18T09:01:43;103132.41;;;5.54;73.82
57859;BME280;49153;45.568;11.894;2022-12-18T09:04:09;103134.91;;;5.62;74.67
57859;BME280;49153;45.568;11.894;2022-12-18T09:06:35;103143.56;;;5.67;73.84
57859;BME280;49153;45.568;11.894;2022-12-18T09:09:00;103146.13;;;5.73;73.87
57859;BME280;49153;45.568;11.894;2022-12-18T09:11:27;103152.16;;;5.79;73.67
57859;BME280;49153;45.568;11.894;2022-12-18T09:13:54;103152.94;;;5.86;73.55
57859;BME280;49153;45.568;11.894;2022-12-18T09:16:20;103152.06;;;5.88;73.03
57859;BME280;49153;45.568;11.894;2022-12-18T09:18:46;103150.28;;;5.92;73.38
57859;BME280;49153;45.568;11.894;2022-12-18T09:21:15;103154.53;;;6.02;72.90
57859;BME280;49153;45.568;11.894;2022-12-18T09:23:41;103161.44;;;6.06;72.57
57859;BME280;49153;45.568;11.894;2022-12-18T09:26:07;103153.59;;;6.06;71.61
57859;BME280;49153;45.568;11.894;2022-12-18T09:28:32;103151.75;;;6.13;72.17
57859;BME280;49153;45.568;11.894;2022-12-18T09:30:58;103148.19;;;6.18;72.36
57859;BME280;49153;45.568;11.894;2022-12-18T09:33:24;103148.88;;;6.29;71.15
57859;BME280;49153;45.568;11.894;2022-12-18T09:35:49;103143.63;;;6.29;71.09
57859;BME280;49153;45.568;11.894;2022-12-18T09:38:17;103157.44;;;6.41;70.65
57859;BME280;49153;45.568;11.894;2022-12-18T09:40:51;103166.97;;;6.48;70.93
57859;BME280;49153;45.568;11.894;2022-12-18T09:43:36;103164.19;;;6.57;71.06
57859;BME280;49153;45.568;11.894;2022-12-18T09:46:07;103161.38;;;6.69;71.61
57859;BME280;49153;45.568;11.894;2022-12-18T09:48:43;103154.31;;;6.74;70.98
57859;BME280;49153;45.568;11.894;2022-12-18T09:51:19;103155.03;;;6.82;69.25
57859;BME280;49153;45.568;11.894;2022-12-18T09:53:53;103156.75;;;6.83;67.97
57859;BME280;49153;45.568;11.894;2022-12-18T09:56:22;103148.06;;;6.81;67.60
57859;BME280;49153;45.568;11.894;2022-12-18T09:58:58;103157.56;;;6.88;67.14
57859;BME280;49153;45.568;11.894;2022-12-18T10:01:24;103147.91;;;6.90;68.06
57859;BME280;49153;45.568;11.894;2022-12-18T10:03:50;103145.97;;;7.01;67.59
57859;BME280;49153;45.568;11.894;2022-12-18T10:09:01;103139.56;;;7.16;68.17
57859;BME280;49153;45.568;11.894;2022-12-18T10:17:12;103122.41;;;7.44;65.37
57859;BME280;49153;45.568;11.894;2022-12-18T10:27:54;103115.13;;;7.57;64.73
57859;BME280;49153;45.568;11.894;2022-12-18T10:30:23;103118.38;;;7.70;65.28
57859;BME280;49153;45.568;11.894;2022-12-18T10:32:49;103118.22;;;7.77;62.83
57859;BME280;49153;45.568;11.894;2022-12-18T10:35:22;103115.50;;;7.82;62.49
57859;BME280;49153;45.568;11.894;2022-12-18T10:38:20;103105.78;;;7.85;63.79
57859;BME280;49153;45.568;11.894;2022-12-18T10:43:37;103110.66;;;8.03;63.60
57859;BME280;49153;45.568;11.894;2022-12-18T10:51:30;103091.91;;;8.17;63.08
57859;BME280;49153;45.568;11.894;2022-12-18T10:54:16;103106.03;;;8.13;63.84
57859;BME280;49153;45.568;11.894;2022-12-18T10:56:43;103093.03;;;8.07;63.10
57859;BME280;49153;45.568;11.894;2022-12-18T10:59:11;103104.44;;;8.06;63.83
57859;BME280;49153;45.568;11.894;2022-12-18T11:01:56;103105.47;;;7.99;62.97
57859;BME280;49153;45.568;11.894;2022-12-18T11:04:26;103108.97;;;7.99;63.93
57859;BME280;49153;45.568;11.894;2022-12-18T11:07:06;103117.59;;;8.04;64.71
57859;BME280;49153;45.568;11.894;2022-12-18T11:09:34;103109.81;;;8.01;64.80
57859;BME280;49153;45.568;11.894;2022-12-18T11:12:08;103120.13;;;8.09;65.02
57859;BME280;49153;45.568;11.894;2022-12-18T11:14:46;103116.50;;;8.15;64.47
57859;BME280;49153;45.568;11.894;2022-12-18T11:17:33;103111.06;;;8.24;63.51
57859;BME280;49153;45.568;11.894;2022-12-18T11:20:21;103111.53;;;8.41;65.23
57859;BME280;49153;45.568;11.894;2022-12-18T11:23:18;103109.22;;;8.64;64.77
57859;BME280;49153;45.568;11.894;2022-12-18T11:25:52;103114.06;;;8.79;64.60
57859;BME280;49153;45.568;11.894;2022-12-18T11:31:27;103114.41;;;9.00;64.16
57859;BME280;49153;45.568;11.894;2022-12-18T11:34:15;103093.94;;;9.11;63.61
57859;BME280;49153;45.568;11.894;2022-12-18T11:36:46;103096.28;;;9.21;63.63
57859;BME280;49153;45.568;11.894;2022-12-18T11:39:42;103102.09;;;9.34;63.56
57859;BME280;49153;45.568;11.894;2022-12-18T11:47:45;103096.47;;;9.46;61.46
57859;BME280;49153;45.568;11.894;2022-12-18T11:50:19;103095.91;;;9.35;59.71
57859;BME280;49153;45.568;11.894;2022-12-18T11:52:45;103089.59;;;9.41;62.01
57859;BME280;49153;45.568;11.894;2022-12-18T11:55:14;103096.03;;;9.61;62.56
57859;BME280;49153;45.568;11.894;2022-12-18T11:57:50;103094.66;;;9.78;62.06
57859;BME280;49153;45.568;11.894;2022-12-18T12:00:19;103084.88;;;9.81;61.58
57859;BME280;49153;45.568;11.894;2022-12-18T12:05:41;103075.34;;;9.77;60.90
57859;BME280;49153;45.568;11.894;2022-12-18T12:17:03;103082.75;;;9.94;60.75
57859;BME280;49153;45.568;11.894;2022-12-18T12:22:26;103083.22;;;10.06;61.04
57859;BME280;49153;45.568;11.894;2022-12-18T12:27:55;103094.09;;;10.25;59.45
57859;BME280;49153;45.568;11.894;2022-12-18T12:30:43;103078.34;;;10.22;59.83
57859;BME280;49153;45.568;11.894;2022-12-18T12:38:59;103085.75;;;10.64;59.05
57859;BME280;49153;45.568;11.894;2022-12-18T12:41:30;103066.84;;;10.51;59.38
57859;BME280;49153;45.568;11.894;2022-12-18T12:44:24;103073.59;;;10.59;59.86
57859;BME280;49153;45.568;11.894;2022-12-18T12:46:52;103070.00;;;10.62;59.85
57859;BME280;49153;45.568;11.894;2022-12-18T12:49:22;103082.31;;;10.62;57.71
57859;BME280;49153;45.568;11.894;2022-12-18T12:51:58;103077.75;;;10.40;58.23
57859;BME280;49153;45.568;11.894;2022-12-18T12:54:25;103074.84;;;10.22;57.38
57859;BME280;49153;45.568;11.894;2022-12-18T13:03:47;103078.75;;;10.08;59.06
57859;BME280;49153;45.568;11.894;2022-12-18T13:06:12;103076.31;;;10.02;58.55
57859;BME280;49153;45.568;11.894;2022-12-18T13:08:59;103070.19;;;10.02;59.42
57859;BME280;49153;45.568;11.894;2022-12-18T13:14:24;103075.44;;;10.02;59.35
57859;BME280;49153;45.568;11.894;2022-12-18T13:16:50;103069.94;;;10.09;59.77
57859;BME280;49153;45.568;11.894;2022-12-18T13:19:23;103077.06;;;10.06;58.75
57859;BME280;49153;45.568;11.894;2022-12-18T13:21:56;103069.13;;;10.07;58.67
57859;BME280;49153;45.568;11.894;2022-12-18T13:24:28;103061.53;;;9.97;59.37
57859;BME280;49153;45.568;11.894;2022-12-18T13:26:55;103066.78;;;9.98;58.48
57859;BME280;49153;45.568;11.894;2022-12-18T13:29:53;103071.91;;;10.03;59.31
57859;BME280;49153;45.568;11.894;2022-12-18T13:32:23;103076.81;;;10.15;58.76
57859;BME280;49153;45.568;11.894;2022-12-18T13:37:44;103065.44;;;10.13;58.51
57859;BME280;49153;45.568;11.894;2022-12-18T13:49:04;103055.66;;;10.43;59.33
57859;BME280;49153;45.568;11.894;2022-12-18T13:51:33;103062.22;;;10.57;58.96
57859;BME280;49153;45.568;11.894;2022-12-18T13:54:06;103060.19;;;10.66;59.14
57859;BME280;49153;45.568;11.894;2022-12-18T13:56:44;103061.75;;;10.71;58.73
57859;BME280;49153;45.568;11.894;2022-12-18T14:01:44;103047.53;;;10.75;58.87
57859;BME280;49153;45.568;11.894;2022-12-18T14:04:28;103054.81;;;10.93;58.95
57859;BME280;49153;45.568;11.894;2022-12-18T14:07:05;103050.22;;;10.98;58.75
57859;BME280;49153;45.568;11.894;2022-12-18T14:09:40;103035.13;;;11.02;58.56
57859;BME280;49153;45.568;11.894;2022-12-18T14:12:35;103041.97;;;11.08;58.87
57859;BME280;49153;45.568;11.894;2022-12-18T14:18:01;103061.66;;;11.22;57.63
57859;BME280;49153;45.568;11.894;2022-12-18T14:20:30;103056.28;;;11.25;58.15
57859;BME280;49153;45.568;11.894;2022-12-18T14:22:56;103050.94;;;11.27;58.46
57859;BME280;49153;45.568;11.894;2022-12-18T14:25:23;103063.88;;;11.34;58.35
57859;BME280;49153;45.568;11.894;2022-12-18T14:27:53;103067.34;;;11.36;57.75
57859;BME280;49153;45.568;11.894;2022-12-18T14:30:30;103050.59;;;11.36;58.17
57859;BME280;49153;45.568;11.894;2022-12-18T14:35:36;103065.13;;;11.48;57.95
57859;BME280;49153;45.568;11.894;2022-12-18T14:38:22;103074.97;;;11.44;58.03
57859;BME280;49153;45.568;11.894;2022-12-18T14:40:52;103070.19;;;11.30;57.79
57859;BME280;49153;45.568;11.894;2022-12-18T14:43:18;103076.84;;;11.17;57.60
57859;BME280;49153;45.568;11.894;2022-12-18T14:45:44;103070.81;;;11.14;57.96
57859;BME280;49153;45.568;11.894;2022-12-18T14:50:37;103073.75;;;10.80;57.82
57859;BME280;49153;45.568;11.894;2022-12-18T14:53:03;103075.84;;;10.70;57.98
57859;BME280;49153;45.568;11.894;2022-12-18T14:55:28;103085.88;;;10.61;58.53
57859;BME280;49153;45.568;11.894;2022-12-18T14:57:55;103089.63;;;10.53;58.84
57859;BME280;49153;45.568;11.894;2022-12-18T15:00:23;103092.63;;;10.43;59.33
57859;BME280;49153;45.568;11.894;2022-12-18T15:02:54;103096.44;;;10.34;59.52